Startpagina
METAR-TAF:

METAR-TAF

Vliegvelden :

Jabalpur, India

breedte: 23-10-54N, lengte: 80-03-31E, hoogte: 495 m

Actueel weer

Dit bericht is 1 uur en het 23 minuten geleden gemaakt, om 09:00 UTC
Wind 10 kt uit het zuiden met uitschieters tot 20 kt
Temperatuur 31°C
Vochtigheid 55%
Druk 1012 hPa
Zicht: 5000 m
Verspreide wolken op 3000 ft
Verspreide wolken op 10000 ft
Heiigheid

METAR: VAJB 230900Z 18010G20KT 5000 HZ SCT030 SCT100 31/21 Q1012

Tijdstip: 15:53 (10:23 UTC)


TAF: ontbreekt

Waarnemingen en weersverwachtingen van meer dan 4000 vliegvelden (METAR en TAF).

De beschikbare stations zijn de gele en rode punten op de kaart.

Ga met uw muis naar het station om de naam te zien.

Klik dan om waarnemingen en weersverwachtingen te zien.

kaart wijzigen: klik op de groene knoppen met een zwart kruis om in te zoomen, op de groene knop met een streepje om uit te zoomen of op de groene pijlen voor aangrenzende kaarten.


METAR-TAF: